sensor_id;sensor_type;location;lat;lon;timestamp;pressure;altitude;pressure_sealevel;temperature;humidity
70133;BME280;57495;49.922;7.966;2023-02-08T00:00:40;102180.38;;;-0.64;68.80
70133;BME280;57495;49.922;7.966;2023-02-08T00:02:41;102181.41;;;-0.75;68.80
70133;BME280;57495;49.922;7.966;2023-02-08T00:04:44;102170.91;;;-0.79;69.17
70133;BME280;57495;49.922;7.966;2023-02-08T00:06:45;102178.06;;;-0.94;69.82
70133;BME280;57495;49.922;7.966;2023-02-08T00:08:47;102169.22;;;-0.81;69.95
70133;BME280;57495;49.922;7.966;2023-02-08T00:10:48;102167.47;;;-0.82;70.48
70133;BME280;57495;49.922;7.966;2023-02-08T00:12:50;102163.09;;;-0.83;70.84
70133;BME280;57495;49.922;7.966;2023-02-08T00:14:52;102163.03;;;-0.77;71.22
70133;BME280;57495;49.922;7.966;2023-02-08T00:16:53;102158.63;;;-0.75;71.25
70133;BME280;57495;49.922;7.966;2023-02-08T00:18:55;102164.84;;;-0.82;72.14
70133;BME280;57495;49.922;7.966;2023-02-08T00:20:58;102163.97;;;-0.81;72.66
70133;BME280;57495;49.922;7.966;2023-02-08T00:22:59;102161.38;;;-0.86;72.42
70133;BME280;57495;49.922;7.966;2023-02-08T00:25:01;102157.91;;;-0.91;72.37
70133;BME280;57495;49.922;7.966;2023-02-08T00:27:02;102159.59;;;-0.84;72.55
70133;BME280;57495;49.922;7.966;2023-02-08T00:29:04;102161.38;;;-0.87;73.20
70133;BME280;57495;49.922;7.966;2023-02-08T00:31:05;102153.47;;;-0.84;73.66
70133;BME280;57495;49.922;7.966;2023-02-08T00:33:07;102161.41;;;-0.89;72.66
70133;BME280;57495;49.922;7.966;2023-02-08T00:35:08;102160.69;;;-1.02;73.64
70133;BME280;57495;49.922;7.966;2023-02-08T00:37:11;102162.28;;;-0.88;73.37
70133;BME280;57495;49.922;7.966;2023-02-08T00:39:13;102158.81;;;-0.93;73.17
70133;BME280;57495;49.922;7.966;2023-02-08T00:41:14;102170.34;;;-1.07;73.55
70133;BME280;57495;49.922;7.966;2023-02-08T00:43:16;102162.41;;;-1.01;73.21
70133;BME280;57495;49.922;7.966;2023-02-08T00:45:17;102165.88;;;-0.97;72.93
70133;BME280;57495;49.922;7.966;2023-02-08T00:47:19;102164.16;;;-1.00;73.16
70133;BME280;57495;49.922;7.966;2023-02-08T00:49:20;102158.81;;;-0.93;73.35
70133;BME280;57495;49.922;7.966;2023-02-08T00:51:22;102162.41;;;-1.01;73.73
70133;BME280;57495;49.922;7.966;2023-02-08T00:53:24;102165.94;;;-1.02;73.91
70133;BME280;57495;49.922;7.966;2023-02-08T00:55:26;102161.53;;;-1.01;75.04
70133;BME280;57495;49.922;7.966;2023-02-08T00:57:27;102169.31;;;-0.89;74.26
70133;BME280;57495;49.922;7.966;2023-02-08T00:59:29;102166.78;;;-1.00;74.71
70133;BME280;57495;49.922;7.966;2023-02-08T01:01:30;102169.34;;;-0.93;74.64
70133;BME280;57495;49.922;7.966;2023-02-08T01:03:33;102171.13;;;-0.99;74.99
70133;BME280;57495;49.922;7.966;2023-02-08T01:05:36;102171.97;;;-0.97;74.64
70133;BME280;57495;49.922;7.966;2023-02-08T01:07:38;102171.13;;;-0.99;74.92
70133;BME280;57495;49.922;7.966;2023-02-08T01:09:41;102172.91;;;-1.01;74.13
70133;BME280;57495;49.922;7.966;2023-02-08T01:11:42;102174.75;;;-1.09;74.66
70133;BME280;57495;49.922;7.966;2023-02-08T01:13:44;102172.97;;;-1.05;74.62
70133;BME280;57495;49.922;7.966;2023-02-08T01:15:45;102165.97;;;-1.08;74.57
70133;BME280;57495;49.922;7.966;2023-02-08T01:17:47;102168.59;;;-1.06;74.37
70133;BME280;57495;49.922;7.966;2023-02-08T01:19:48;102159.03;;;-1.15;74.21
70133;BME280;57495;49.922;7.966;2023-02-08T01:21:50;102162.50;;;-1.13;74.47
70133;BME280;57495;49.922;7.966;2023-02-08T01:23:51;102163.41;;;-1.11;74.74
70133;BME280;57495;49.922;7.966;2023-02-08T01:25:54;102159.09;;;-1.18;74.98
70133;BME280;57495;49.922;7.966;2023-02-08T01:27:55;102166.13;;;-1.23;75.59
70133;BME280;57495;49.922;7.966;2023-02-08T01:29:57;102162.66;;;-1.27;75.66
70133;BME280;57495;49.922;7.966;2023-02-08T01:31:58;102157.47;;;-1.34;76.31
70133;BME280;57495;49.922;7.966;2023-02-08T01:34:00;102160.84;;;-1.20;75.86
70133;BME280;57495;49.922;7.966;2023-02-08T01:36:02;102159.09;;;-1.21;75.38
70133;BME280;57495;49.922;7.966;2023-02-08T01:38:05;102159.09;;;-1.21;74.89
70133;BME280;57495;49.922;7.966;2023-02-08T01:40:06;102150.38;;;-1.26;74.67
70133;BME280;57495;49.922;7.966;2023-02-08T01:42:12;102157.41;;;-1.28;75.18
70133;BME280;57495;49.922;7.966;2023-02-08T01:46:52;102145.19;;;-1.29;73.93
70133;BME280;57495;49.922;7.966;2023-02-08T01:48:56;102142.66;;;-1.39;73.13
70133;BME280;57495;49.922;7.966;2023-02-08T01:51:08;102146.16;;;-1.41;74.09
70133;BME280;57495;49.922;7.966;2023-02-08T01:53:11;102138.25;;;-1.37;74.03
70133;BME280;57495;49.922;7.966;2023-02-08T01:55:15;102142.59;;;-1.36;74.05
70133;BME280;57495;49.922;7.966;2023-02-08T01:57:21;102140.88;;;-1.37;74.13
70133;BME280;57495;49.922;7.966;2023-02-08T01:59:26;102141.00;;;-1.52;75.81
70133;BME280;57495;49.922;7.966;2023-02-08T02:01:30;102134.81;;;-1.45;74.61
70133;BME280;57495;49.922;7.966;2023-02-08T02:03:32;102134.81;;;-1.45;76.03
70133;BME280;57495;49.922;7.966;2023-02-08T02:05:42;102136.63;;;-1.50;75.28
70133;BME280;57495;49.922;7.966;2023-02-08T02:07:44;102127.94;;;-1.58;76.18
70133;BME280;57495;49.922;7.966;2023-02-08T02:09:50;102133.19;;;-1.60;75.83
70133;BME280;57495;49.922;7.966;2023-02-08T02:11:53;102136.66;;;-1.53;74.43
70133;BME280;57495;49.922;7.966;2023-02-08T02:13:57;102128.84;;;-1.62;74.46
70133;BME280;57495;49.922;7.966;2023-02-08T02:15:59;102131.53;;;-1.68;74.93
70133;BME280;57495;49.922;7.966;2023-02-08T02:18:00;102131.50;;;-1.65;75.47
70133;BME280;57495;49.922;7.966;2023-02-08T02:20:07;102124.63;;;-1.82;76.11
70133;BME280;57495;49.922;7.966;2023-02-08T02:22:34;102126.38;;;-1.79;76.35
70133;BME280;57495;49.922;7.966;2023-02-08T02:25:06;102125.47;;;-1.77;76.75
70133;BME280;57495;49.922;7.966;2023-02-08T02:27:24;102126.44;;;-1.87;76.73
70133;BME280;57495;49.922;7.966;2023-02-08T02:32:21;102117.53;;;-1.70;76.86
70133;BME280;57495;49.922;7.966;2023-02-08T02:34:33;102114.97;;;-1.75;77.96
70133;BME280;57495;49.922;7.966;2023-02-08T02:36:43;102114.13;;;-1.79;77.34
70133;BME280;57495;49.922;7.966;2023-02-08T02:38:59;102122.09;;;-1.94;76.84
70133;BME280;57495;49.922;7.966;2023-02-08T02:41:07;102117.75;;;-1.98;75.63
70133;BME280;57495;49.922;7.966;2023-02-08T02:43:17;102119.53;;;-2.03;77.23
70133;BME280;57495;49.922;7.966;2023-02-08T02:45:45;102126.44;;;-1.95;76.09
70133;BME280;57495;49.922;7.966;2023-02-08T02:47:55;102121.19;;;-1.93;76.75
70133;BME280;57495;49.922;7.966;2023-02-08T02:50:04;102117.78;;;-2.01;76.02
70133;BME280;57495;49.922;7.966;2023-02-08T02:52:11;102109.00;;;-1.97;76.85
70133;BME280;57495;49.922;7.966;2023-02-08T02:54:18;102117.72;;;-1.93;76.01
70133;BME280;57495;49.922;7.966;2023-02-08T02:56:23;102112.47;;;-1.92;76.60
70133;BME280;57495;49.922;7.966;2023-02-08T02:58:26;102107.22;;;-1.92;76.59
70133;BME280;57495;49.922;7.966;2023-02-08T03:00:28;102117.84;;;-2.10;77.78
70133;BME280;57495;49.922;7.966;2023-02-08T03:02:31;102116.06;;;-2.08;77.17
70133;BME280;57495;49.922;7.966;2023-02-08T03:04:52;102123.03;;;-2.07;77.59
70133;BME280;57495;49.922;7.966;2023-02-08T03:07:02;102114.44;;;-2.28;78.56
70133;BME280;57495;49.922;7.966;2023-02-08T03:09:15;102113.44;;;-2.07;77.38
70133;BME280;57495;49.922;7.966;2023-02-08T03:11:22;102112.59;;;-2.10;77.29
70133;BME280;57495;49.922;7.966;2023-02-08T03:13:31;102112.53;;;-2.04;78.05
70133;BME280;57495;49.922;7.966;2023-02-08T03:15:51;102111.63;;;-1.99;77.49
70133;BME280;57495;49.922;7.966;2023-02-08T03:18:04;102104.69;;;-2.03;79.21
70133;BME280;57495;49.922;7.966;2023-02-08T03:20:16;102112.59;;;-2.10;79.15
70133;BME280;57495;49.922;7.966;2023-02-08T03:22:24;102106.44;;;-2.08;79.64
70133;BME280;57495;49.922;7.966;2023-02-08T03:24:35;102121.31;;;-2.08;80.37
70133;BME280;57495;49.922;7.966;2023-02-08T03:26:47;102123.88;;;-2.04;78.75
70133;BME280;57495;49.922;7.966;2023-02-08T03:28:57;102123.03;;;-2.07;78.18
70133;BME280;57495;49.922;7.966;2023-02-08T03:31:04;102128.31;;;-2.10;78.55
70133;BME280;57495;49.922;7.966;2023-02-08T03:33:12;102123.94;;;-2.13;77.29
70133;BME280;57495;49.922;7.966;2023-02-08T03:35:20;102116.09;;;-2.13;78.31
70133;BME280;57495;49.922;7.966;2023-02-08T03:37:26;102124.03;;;-2.25;77.41
70133;BME280;57495;49.922;7.966;2023-02-08T03:39:30;102129.34;;;-2.36;78.79
70133;BME280;57495;49.922;7.966;2023-02-08T03:41:37;102128.44;;;-2.29;79.12
70133;BME280;57495;49.922;7.966;2023-02-08T03:43:43;102124.94;;;-2.31;79.61
70133;BME280;57495;49.922;7.966;2023-02-08T03:45:50;102124.91;;;-2.25;79.41
70133;BME280;57495;49.922;7.966;2023-02-08T03:47:53;102130.16;;;-2.25;78.45
70133;BME280;57495;49.922;7.966;2023-02-08T03:50:00;102123.19;;;-2.27;79.15
70133;BME280;57495;49.922;7.966;2023-02-08T03:52:07;102119.72;;;-2.37;78.91
70133;BME280;57495;49.922;7.966;2023-02-08T03:54:13;102120.56;;;-2.30;80.03
70133;BME280;57495;49.922;7.966;2023-02-08T03:56:20;102116.13;;;-2.21;78.62
70133;BME280;57495;49.922;7.966;2023-02-08T03:58:30;102118.66;;;-2.02;79.19
70133;BME280;57495;49.922;7.966;2023-02-08T04:00:37;102120.56;;;-2.30;80.26
70133;BME280;57495;49.922;7.966;2023-02-08T04:02:42;102116.13;;;-2.21;79.78
70133;BME280;57495;49.922;7.966;2023-02-08T04:04:49;102112.63;;;-2.17;79.87
70133;BME280;57495;49.922;7.966;2023-02-08T04:06:52;102123.19;;;-2.29;80.35
70133;BME280;57495;49.922;7.966;2023-02-08T04:08:56;102113.63;;;-2.33;81.19
70133;BME280;57495;49.922;7.966;2023-02-08T04:10:57;102114.44;;;-2.28;78.56
70133;BME280;57495;49.922;7.966;2023-02-08T04:12:59;102111.84;;;-2.29;77.88
70133;BME280;57495;49.922;7.966;2023-02-08T04:15:00;102118.84;;;-2.35;77.79
70133;BME280;57495;49.922;7.966;2023-02-08T04:17:02;102111.00;;;-2.35;76.78
70133;BME280;57495;49.922;7.966;2023-02-08T04:19:03;102111.91;;;-2.40;77.22
70133;BME280;57495;49.922;7.966;2023-02-08T04:21:05;102116.28;;;-2.45;76.92
70133;BME280;57495;49.922;7.966;2023-02-08T04:23:06;102113.66;;;-2.42;79.15
70133;BME280;57495;49.922;7.966;2023-02-08T04:25:09;102111.94;;;-2.48;77.62
70133;BME280;57495;49.922;7.966;2023-02-08T04:27:11;102109.28;;;-2.46;77.88
70133;BME280;57495;49.922;7.966;2023-02-08T04:29:12;102114.53;;;-2.42;78.01
70133;BME280;57495;49.922;7.966;2023-02-08T04:31:14;102117.16;;;-2.43;78.16
70133;BME280;57495;49.922;7.966;2023-02-08T04:33:15;102109.34;;;-2.53;78.14
70133;BME280;57495;49.922;7.966;2023-02-08T04:35:17;102111.94;;;-2.49;77.99
70133;BME280;57495;49.922;7.966;2023-02-08T04:37:18;102111.94;;;-2.48;78.94
70133;BME280;57495;49.922;7.966;2023-02-08T04:39:19;102107.56;;;-2.47;79.32
70133;BME280;57495;49.922;7.966;2023-02-08T04:41:22;102106.66;;;-2.46;79.33
70133;BME280;57495;49.922;7.966;2023-02-08T04:43:24;102110.19;;;-2.52;80.33
70133;BME280;57495;49.922;7.966;2023-02-08T04:45:25;102100.63;;;-2.55;80.72
70133;BME280;57495;49.922;7.966;2023-02-08T04:47:29;102110.16;;;-2.43;79.65
70133;BME280;57495;49.922;7.966;2023-02-08T04:49:30;102106.66;;;-2.46;79.83
70133;BME280;57495;49.922;7.966;2023-02-08T04:51:31;102107.53;;;-2.44;80.14
70133;BME280;57495;49.922;7.966;2023-02-08T04:53:33;102105.81;;;-2.45;80.25
70133;BME280;57495;49.922;7.966;2023-02-08T04:55:34;102102.31;;;-2.47;79.56
70133;BME280;57495;49.922;7.966;2023-02-08T04:57:37;102100.59;;;-2.51;80.71
70133;BME280;57495;49.922;7.966;2023-02-08T04:59:39;102097.09;;;-2.49;80.55
70133;BME280;57495;49.922;7.966;2023-02-08T05:01:40;102091.91;;;-2.60;79.90
70133;BME280;57495;49.922;7.966;2023-02-08T05:03:41;102090.13;;;-2.58;80.50
70133;BME280;57495;49.922;7.966;2023-02-08T05:05:43;102090.09;;;-2.48;80.90
70133;BME280;57495;49.922;7.966;2023-02-08T05:07:45;102085.75;;;-2.54;80.22
70133;BME280;57495;49.922;7.966;2023-02-08T05:09:46;102091.00;;;-2.48;80.77
70133;BME280;57495;49.922;7.966;2023-02-08T05:11:47;102088.38;;;-2.53;81.69
70133;BME280;57495;49.922;7.966;2023-02-08T05:13:51;102094.47;;;-2.54;81.81
70133;BME280;57495;49.922;7.966;2023-02-08T05:15:52;102090.13;;;-2.51;82.72
70133;BME280;57495;49.922;7.966;2023-02-08T05:17:54;102090.09;;;-2.48;82.35
70133;BME280;57495;49.922;7.966;2023-02-08T05:19:55;102086.63;;;-2.47;82.27
70133;BME280;57495;49.922;7.966;2023-02-08T05:21:57;102081.38;;;-2.49;82.20
70133;BME280;57495;49.922;7.966;2023-02-08T05:23:58;102082.25;;;-2.48;83.34
70133;BME280;57495;49.922;7.966;2023-02-08T05:26:04;102090.97;;;-2.46;83.37
70133;BME280;57495;49.922;7.966;2023-02-08T05:28:06;102084.84;;;-2.42;82.14
70133;BME280;57495;49.922;7.966;2023-02-08T05:30:10;102081.34;;;-2.44;81.86
70133;BME280;57495;49.922;7.966;2023-02-08T05:32:11;102073.53;;;-2.47;81.81
70133;BME280;57495;49.922;7.966;2023-02-08T05:34:13;102075.22;;;-2.43;82.53
70133;BME280;57495;49.922;7.966;2023-02-08T05:36:14;102078.81;;;-2.55;82.31
70133;BME280;57495;49.922;7.966;2023-02-08T05:38:16;102084.91;;;-2.58;84.12
70133;BME280;57495;49.922;7.966;2023-02-08T05:40:17;102078.75;;;-2.50;85.32
70133;BME280;57495;49.922;7.966;2023-02-08T05:42:19;102087.47;;;-2.50;84.49
70133;BME280;57495;49.922;7.966;2023-02-08T05:44:20;102091.81;;;-2.41;84.37
70133;BME280;57495;49.922;7.966;2023-02-08T05:46:23;102089.31;;;-2.70;85.05
70133;BME280;57495;49.922;7.966;2023-02-08T05:48:25;102096.28;;;-2.63;84.78
70133;BME280;57495;49.922;7.966;2023-02-08T05:50:26;102100.72;;;-2.79;85.49
70133;BME280;57495;49.922;7.966;2023-02-08T05:52:28;102105.94;;;-2.75;84.23
70133;BME280;57495;49.922;7.966;2023-02-08T05:54:29;102105.94;;;-2.70;84.48
70133;BME280;57495;49.922;7.966;2023-02-08T05:56:31;102101.53;;;-2.65;83.78
70133;BME280;57495;49.922;7.966;2023-02-08T05:58:32;102107.66;;;-2.69;84.78
70133;BME280;57495;49.922;7.966;2023-02-08T06:00:34;102102.44;;;-2.72;84.03
70133;BME280;57495;49.922;7.966;2023-02-08T06:02:37;102100.69;;;-2.78;84.72
70133;BME280;57495;49.922;7.966;2023-02-08T06:04:38;102105.94;;;-2.73;84.61
70133;BME280;57495;49.922;7.966;2023-02-08T06:06:40;102109.44;;;-2.77;82.44
70133;BME280;57495;49.922;7.966;2023-02-08T06:08:41;102119.91;;;-2.79;82.64
70133;BME280;57495;49.922;7.966;2023-02-08T06:10:43;102121.69;;;-2.88;82.04
70133;BME280;57495;49.922;7.966;2023-02-08T06:12:45;102119.91;;;-2.83;82.02
70133;BME280;57495;49.922;7.966;2023-02-08T06:14:46;102126.03;;;-2.83;81.06
70133;BME280;57495;49.922;7.966;2023-02-08T06:16:48;102124.25;;;-2.76;83.71
70133;BME280;57495;49.922;7.966;2023-02-08T06:18:50;102129.47;;;-2.67;83.89
70133;BME280;57495;49.922;7.966;2023-02-08T06:20:52;102122.53;;;-2.83;83.17
70133;BME280;57495;49.922;7.966;2023-02-08T06:22:54;102125.19;;;-2.86;82.40
70133;BME280;57495;49.922;7.966;2023-02-08T06:24:55;102122.59;;;-2.96;83.84
70133;BME280;57495;49.922;7.966;2023-02-08T06:26:57;102119.09;;;-3.01;84.53
70133;BME280;57495;49.922;7.966;2023-02-08T06:28:59;102116.47;;;-2.92;84.36
70133;BME280;57495;49.922;7.966;2023-02-08T06:31:00;102121.69;;;-2.92;84.00
70133;BME280;57495;49.922;7.966;2023-02-08T06:33:02;102125.22;;;-2.96;85.08
70133;BME280;57495;49.922;7.966;2023-02-08T06:35:06;102116.47;;;-2.95;84.62
70133;BME280;57495;49.922;7.966;2023-02-08T06:37:07;102125.19;;;-2.85;84.84
70133;BME280;57495;49.922;7.966;2023-02-08T06:39:09;102132.13;;;-2.85;83.28
70133;BME280;57495;49.922;7.966;2023-02-08T06:41:10;102125.16;;;-2.77;84.33
70133;BME280;57495;49.922;7.966;2023-02-08T06:43:12;102135.59;;;-2.71;83.36
70133;BME280;57495;49.922;7.966;2023-02-08T06:45:13;102135.59;;;-2.71;82.81
70133;BME280;57495;49.922;7.966;2023-02-08T06:47:15;102139.06;;;-2.69;81.62
70133;BME280;57495;49.922;7.966;2023-02-08T06:49:16;102133.88;;;-2.75;80.97
70133;BME280;57495;49.922;7.966;2023-02-08T06:51:19;102142.56;;;-2.64;82.27
70133;BME280;57495;49.922;7.966;2023-02-08T06:53:20;102132.94;;;-2.63;81.56
70133;BME280;57495;49.922;7.966;2023-02-08T06:55:22;102137.31;;;-2.64;82.89
70133;BME280;57495;49.922;7.966;2023-02-08T06:57:23;102137.34;;;-2.76;82.85
70133;BME280;57495;49.922;7.966;2023-02-08T06:59:25;102133.88;;;-2.78;83.92
70133;BME280;57495;49.922;7.966;2023-02-08T07:01:26;102132.06;;;-2.68;83.54
70133;BME280;57495;49.922;7.966;2023-02-08T07:03:28;102133.84;;;-2.69;82.79
70133;BME280;57495;49.922;7.966;2023-02-08T07:05:29;102130.34;;;-2.73;82.65
70133;BME280;57495;49.922;7.966;2023-02-08T07:07:32;102132.09;;;-2.75;82.53
70133;BME280;57495;49.922;7.966;2023-02-08T07:09:34;102137.34;;;-2.70;82.56
70133;BME280;57495;49.922;7.966;2023-02-08T07:11:35;102139.97;;;-2.73;83.59
70133;BME280;57495;49.922;7.966;2023-02-08T07:13:37;102132.06;;;-2.67;82.40
70133;BME280;57495;49.922;7.966;2023-02-08T07:15:39;102133.91;;;-2.81;82.45
70133;BME280;57495;49.922;7.966;2023-02-08T07:17:40;102131.31;;;-2.94;83.21
70133;BME280;57495;49.922;7.966;2023-02-08T07:19:41;102132.13;;;-2.81;83.21
70133;BME280;57495;49.922;7.966;2023-02-08T07:21:43;102123.44;;;-2.87;83.09
70133;BME280;57495;49.922;7.966;2023-02-08T07:23:46;102127.81;;;-2.88;83.47
70133;BME280;57495;49.922;7.966;2023-02-08T07:25:55;102125.19;;;-3.02;83.73
70133;BME280;57495;49.922;7.966;2023-02-08T07:27:57;102123.47;;;-3.01;84.17
70133;BME280;57495;49.922;7.966;2023-02-08T07:29:58;102125.19;;;-2.85;83.92
70133;BME280;57495;49.922;7.966;2023-02-08T07:32:00;102126.03;;;-2.81;84.14
70133;BME280;57495;49.922;7.966;2023-02-08T07:34:02;102126.03;;;-2.81;84.13
70133;BME280;57495;49.922;7.966;2023-02-08T07:36:04;102126.88;;;-2.76;83.61
70133;BME280;57495;49.922;7.966;2023-02-08T07:38:06;102126.91;;;-2.79;83.03
70133;BME280;57495;49.922;7.966;2023-02-08T07:40:10;102124.22;;;-2.65;82.05
70133;BME280;57495;49.922;7.966;2023-02-08T07:42:14;102129.41;;;-2.58;82.20
70133;BME280;57495;49.922;7.966;2023-02-08T07:44:15;102116.31;;;-2.55;81.88
70133;BME280;57495;49.922;7.966;2023-02-08T07:46:18;102120.66;;;-2.50;82.17
70133;BME280;57495;49.922;7.966;2023-02-08T07:48:20;102120.66;;;-2.46;82.14
70133;BME280;57495;49.922;7.966;2023-02-08T07:50:22;102122.34;;;-2.36;81.91
70133;BME280;57495;49.922;7.966;2023-02-08T07:52:23;102122.34;;;-2.36;81.94
70133;BME280;57495;49.922;7.966;2023-02-08T07:54:25;102118.81;;;-2.27;82.48
70133;BME280;57495;49.922;7.966;2023-02-08T07:56:28;102116.16;;;-2.22;82.01
70133;BME280;57495;49.922;7.966;2023-02-08T07:58:29;102115.19;;;-2.07;80.50
70133;BME280;57495;49.922;7.966;2023-02-08T08:00:34;102117.75;;;-1.98;81.07
70133;BME280;57495;49.922;7.966;2023-02-08T08:02:35;102112.41;;;-1.86;80.85
70133;BME280;57495;49.922;7.966;2023-02-08T08:04:37;102114.03;;;-1.66;80.42
70133;BME280;57495;49.922;7.966;2023-02-08T08:06:38;102112.03;;;-1.40;75.08
70133;BME280;57495;49.922;7.966;2023-02-08T08:08:40;102103.16;;;-1.26;76.07
70133;BME280;57495;49.922;7.966;2023-02-08T08:10:42;102103.13;;;-1.20;76.33
70133;BME280;57495;49.922;7.966;2023-02-08T08:12:45;102104.84;;;-1.19;75.34
70133;BME280;57495;49.922;7.966;2023-02-08T08:14:47;102103.69;;;-0.92;72.95
70133;BME280;57495;49.922;7.966;2023-02-08T08:16:48;102114.81;;;-0.73;72.65
70133;BME280;57495;49.922;7.966;2023-02-08T08:18:49;102115.63;;;-0.65;72.55
70133;BME280;57495;49.922;7.966;2023-02-08T08:20:51;102118.03;;;-0.49;70.90
70133;BME280;57495;49.922;7.966;2023-02-08T08:22:52;102120.53;;;-0.37;69.39
70133;BME280;57495;49.922;7.966;2023-02-08T08:24:54;102115.97;;;-0.26;68.68
70133;BME280;57495;49.922;7.966;2023-02-08T08:26:57;102122.69;;;-0.05;68.50
70133;BME280;57495;49.922;7.966;2023-02-08T08:29:00;102111.91;;;0.11;67.38
70133;BME280;57495;49.922;7.966;2023-02-08T08:31:02;102120.34;;;0.33;67.07
70133;BME280;57495;49.922;7.966;2023-02-08T08:33:03;102111.56;;;0.34;67.76
70133;BME280;57495;49.922;7.966;2023-02-08T08:35:06;102111.31;;;0.49;66.24
70133;BME280;57495;49.922;7.966;2023-02-08T08:37:08;102114.78;;;0.51;66.47
70133;BME280;57495;49.922;7.966;2023-02-08T08:39:10;102122.59;;;0.56;66.21
70133;BME280;57495;49.922;7.966;2023-02-08T08:41:15;102113.50;;;0.74;65.60
70133;BME280;57495;49.922;7.966;2023-02-08T08:43:17;102126.50;;;0.83;65.42
70133;BME280;57495;49.922;7.966;2023-02-08T08:45:20;102117.88;;;0.76;63.81
70133;BME280;57495;49.922;7.966;2023-02-08T08:47:22;102115.44;;;0.64;63.56
70133;BME280;57495;49.922;7.966;2023-02-08T08:49:24;102115.97;;;0.83;63.61
70133;BME280;57495;49.922;7.966;2023-02-08T08:51:26;102107.78;;;0.99;63.42
70133;BME280;57495;49.922;7.966;2023-02-08T08:53:27;102107.66;;;1.06;64.24
70133;BME280;57495;49.922;7.966;2023-02-08T08:55:29;102105.88;;;1.07;63.11
70133;BME280;57495;49.922;7.966;2023-02-08T08:57:30;102112.91;;;1.06;63.33
70133;BME280;57495;49.922;7.966;2023-02-08T08:59:32;102115.13;;;1.28;62.83
70133;BME280;57495;49.922;7.966;2023-02-08T09:01:35;102115.63;;;1.45;62.04
70133;BME280;57495;49.922;7.966;2023-02-08T09:03:37;102111.84;;;1.59;62.68
70133;BME280;57495;49.922;7.966;2023-02-08T09:05:39;102104.94;;;1.53;60.44
70133;BME280;57495;49.922;7.966;2023-02-08T09:07:40;102104.78;;;1.59;61.40
70133;BME280;57495;49.922;7.966;2023-02-08T09:09:41;102108.03;;;1.72;61.70
70133;BME280;57495;49.922;7.966;2023-02-08T09:11:47;102110.38;;;1.86;60.12
70133;BME280;57495;49.922;7.966;2023-02-08T09:13:48;102107.78;;;1.83;61.31
70133;BME280;57495;49.922;7.966;2023-02-08T09:15:52;102115.22;;;2.04;60.58
70133;BME280;57495;49.922;7.966;2023-02-08T09:17:54;102108.66;;;2.22;61.15
70133;BME280;57495;49.922;7.966;2023-02-08T09:19:56;102105.81;;;2.30;61.04
70133;BME280;57495;49.922;7.966;2023-02-08T09:21:59;102104.66;;;2.04;60.30
70133;BME280;57495;49.922;7.966;2023-02-08T09:24:00;102100.81;;;2.18;60.04
70133;BME280;57495;49.922;7.966;2023-02-08T09:26:02;102107.09;;;2.48;57.33
70133;BME280;57495;49.922;7.966;2023-02-08T09:28:06;102110.97;;;2.70;56.53
70133;BME280;57495;49.922;7.966;2023-02-08T09:30:09;102109.44;;;2.95;55.99
70133;BME280;57495;49.922;7.966;2023-02-08T09:32:10;102105.78;;;2.99;55.96
70133;BME280;57495;49.922;7.966;2023-02-08T09:34:13;102105.97;;;2.93;54.56
70133;BME280;57495;49.922;7.966;2023-02-08T09:36:15;102101.09;;;3.08;56.11
70133;BME280;57495;49.922;7.966;2023-02-08T09:38:17;102100.06;;;3.14;54.48
70133;BME280;57495;49.922;7.966;2023-02-08T09:40:21;102090.78;;;3.31;55.10
70133;BME280;57495;49.922;7.966;2023-02-08T09:42:28;102091.53;;;3.36;54.42
70133;BME280;57495;49.922;7.966;2023-02-08T09:44:41;102084.97;;;3.49;54.72
70133;BME280;57495;49.922;7.966;2023-02-08T09:46:51;102097.09;;;3.56;54.85
70133;BME280;57495;49.922;7.966;2023-02-08T09:48:57;102095.25;;;3.58;53.27
70133;BME280;57495;49.922;7.966;2023-02-08T09:51:06;102089.41;;;3.77;54.23
70133;BME280;57495;49.922;7.966;2023-02-08T09:53:14;102080.50;;;4.07;52.61
70133;BME280;57495;49.922;7.966;2023-02-08T09:55:24;102085.91;;;4.31;53.82
70133;BME280;57495;49.922;7.966;2023-02-08T09:57:32;102079.78;;;4.56;52.14
70133;BME280;57495;49.922;7.966;2023-02-08T09:59:37;102080.22;;;4.69;51.42
70133;BME280;57495;49.922;7.966;2023-02-08T10:01:41;102082.94;;;4.67;51.46
70133;BME280;57495;49.922;7.966;2023-02-08T10:03:44;102080.44;;;4.88;49.85
70133;BME280;57495;49.922;7.966;2023-02-08T10:05:45;102083.56;;;4.99;50.82
70133;BME280;57495;49.922;7.966;2023-02-08T10:07:48;102080.44;;;5.13;49.21
70133;BME280;57495;49.922;7.966;2023-02-08T10:09:50;102084.41;;;5.25;48.54
70133;BME280;57495;49.922;7.966;2023-02-08T10:12:02;102081.50;;;5.54;49.80
70133;BME280;57495;49.922;7.966;2023-02-08T10:14:18;102090.03;;;5.62;49.34
70133;BME280;57495;49.922;7.966;2023-02-08T10:16:37;102087.59;;;5.80;49.64
70133;BME280;57495;49.922;7.966;2023-02-08T10:18:45;102090.63;;;5.47;46.94
70133;BME280;57495;49.922;7.966;2023-02-08T10:21:00;102086.34;;;5.67;46.79
70133;BME280;57495;49.922;7.966;2023-02-08T10:23:19;102086.72;;;5.57;48.31
70133;BME280;57495;49.922;7.966;2023-02-08T10:25:36;102082.44;;;5.99;47.14
70133;BME280;57495;49.922;7.966;2023-02-08T10:27:49;102091.53;;;6.15;47.37
70133;BME280;57495;49.922;7.966;2023-02-08T10:30:19;102093.63;;;6.29;48.14
70133;BME280;57495;49.922;7.966;2023-02-08T10:32:52;102092.94;;;6.24;45.40
70133;BME280;57495;49.922;7.966;2023-02-08T10:34:58;102094.66;;;6.25;44.71
70133;BME280;57495;49.922;7.966;2023-02-08T10:37:05;102093.69;;;6.28;44.72
70133;BME280;57495;49.922;7.966;2023-02-08T10:39:17;102090.75;;;6.34;45.21
70133;BME280;57495;49.922;7.966;2023-02-08T10:41:26;102085.47;;;6.54;44.74
70133;BME280;57495;49.922;7.966;2023-02-08T10:43:36;102082.63;;;6.80;46.55
70133;BME280;57495;49.922;7.966;2023-02-08T10:45:44;102075.63;;;6.77;44.61
70133;BME280;57495;49.922;7.966;2023-02-08T10:47:52;102070.13;;;6.61;46.02
70133;BME280;57495;49.922;7.966;2023-02-08T10:49:59;102073.44;;;7.07;45.94
70133;BME280;57495;49.922;7.966;2023-02-08T10:52:02;102065.53;;;7.25;43.97
70133;BME280;57495;49.922;7.966;2023-02-08T10:54:04;102073.09;;;7.34;45.34
70133;BME280;57495;49.922;7.966;2023-02-08T10:56:20;102059.88;;;7.51;44.48